Time;durP1;ratioP1;P1;durP2;ratioP2;P2;SDS_P1;SDS_P2;PMS_P1;PMS_P2;Temp;Humidity;BMP_temperature;BMP_pressure;BME280_temperature;BME280_humidity;BME280_pressure;Samples;Min_cycle;Max_cycle;Signal;HPM_P1;HPM_P2
2022/12/01 00:01:28;;;;;;;9.88;6.75;;;;;;;10.80;74.57;100882.47;5010617;28;20475;-69
2022/12/01 00:03:56;;;;;;;10.40;6.75;;;;;;;10.74;75.00;100884.63;4995434;28;20496;-69
2022/12/01 00:06:24;;;;;;;12.35;7.15;;;;;;;10.62;75.42;100890.59;4995455;28;20046;-70
2022/12/01 00:11:46;;;;;;;10.75;7.13;;;;;;;10.61;75.59;100903.03;4995830;28;20407;-70
2022/12/01 00:14:15;;;;;;;11.57;6.43;;;;;;;10.61;75.33;100903.03;4995741;28;20054;-69
2022/12/01 00:16:43;;;;;;;12.15;6.85;;;;;;;10.61;75.28;100897.69;4995775;28;20046;-69
2022/12/01 00:19:12;;;;;;;10.48;6.45;;;;;;;10.62;75.20;100903.91;4995620;28;20054;-69
2022/12/01 00:21:40;;;;;;;11.35;7.15;;;;;;;10.65;75.34;100906.44;4995550;28;20045;-69
2022/12/01 00:24:11;;;;;;;10.35;6.80;;;;;;;10.64;75.37;100905.56;4995361;28;20042;-69
2022/12/01 00:26:40;;;;;;;11.15;6.68;;;;;;;10.65;75.08;100903.75;4995115;28;20502;-69
2022/12/01 00:29:08;;;;;;;11.48;7.03;;;;;;;10.65;75.05;100904.63;5010470;28;20173;-70
2022/12/01 00:31:36;;;;;;;10.45;6.18;;;;;;;10.64;75.01;100902.91;4995411;28;20054;-69
2022/12/01 00:34:05;;;;;;;10.93;6.90;;;;;;;10.62;75.27;100904.78;4995283;28;20113;-68
2022/12/01 00:36:38;;;;;;;10.20;6.97;;;;;;;10.60;75.30;100901.31;4995505;28;20046;-69
2022/12/01 00:39:07;;;;;;;11.57;6.40;;;;;;;10.58;75.36;100909.38;4995248;28;20072;-69
2022/12/01 00:41:36;;;;;;;11.38;6.57;;;;;;;10.57;75.19;100913.00;4995126;28;20084;-69
2022/12/01 00:44:05;;;;;;;10.07;6.72;;;;;;;10.57;75.16;100906.81;4995063;28;20048;-69
2022/12/01 00:46:33;;;;;;;9.85;6.57;;;;;;;10.57;75.42;100906.81;4994886;28;20049;-69
2022/12/01 00:49:01;;;;;;;9.93;6.15;;;;;;;10.57;75.36;100909.47;4995023;28;20050;-70
2022/12/01 00:51:30;;;;;;;10.45;6.38;;;;;;;10.57;75.36;100912.13;4994947;28;20050;-69
2022/12/01 00:53:58;;;;;;;9.77;6.63;;;;;;;10.57;75.19;100912.13;5009983;28;20077;-69
2022/12/01 00:56:26;;;;;;;12.20;7.18;;;;;;;10.55;75.37;100914.88;4994832;28;20052;-69
2022/12/01 00:58:56;;;;;;;10.57;6.50;;;;;;;10.56;75.29;100921.94;4995212;28;20050;-69
2022/12/01 01:01:24;;;;;;;11.27;6.43;;;;;;;10.61;75.22;100924.38;4995148;28;20046;-69
2022/12/01 01:03:52;;;;;;;10.43;6.47;;;;;;;10.45;75.67;100918.94;4995238;28;20050;-69
2022/12/01 01:06:21;;;;;;;9.60;6.22;;;;;;;10.45;75.49;100913.63;4996539;28;20558;-68
2022/12/01 01:08:49;;;;;;;11.77;6.45;;;;;;;10.48;75.60;100913.44;4995432;28;20380;-69
2022/12/01 01:11:17;;;;;;;14.98;6.30;;;;;;;10.48;75.46;100917.94;4994712;28;20046;-69
2022/12/01 01:13:46;;;;;;;11.02;6.60;;;;;;;10.45;75.51;100910.09;4994611;28;20042;-69
2022/12/01 01:16:18;;;;;;;10.77;6.25;;;;;;;10.46;75.50;100909.16;5009713;28;20058;-69
2022/12/01 01:18:47;;;;;;;;;;;;;;;10.44;75.43;100914.56;4994701;28;20090;-68
2022/12/01 01:21:18;;;;;;;12.98;7.30;;;;;;;10.42;75.05;100907.53;4994526;28;19921;-69
2022/12/01 01:23:46;;;;;;;10.60;6.20;;;;;;;10.42;75.25;100902.22;4994987;28;20444;-69
2022/12/01 01:26:18;;;;;;;11.25;6.15;;;;;;;10.42;75.27;100910.22;4994416;28;20123;-69
2022/12/01 01:28:47;;;;;;;10.85;6.53;;;;;;;10.40;75.54;100912.09;4994528;28;20055;-68
2022/12/01 01:31:19;;;;;;;10.40;6.53;;;;;;;10.44;75.39;100911.91;4994189;28;20470;-68
2022/12/01 01:33:48;;;;;;;10.55;6.30;;;;;;;10.43;75.25;100909.31;4994126;28;20050;-69
2022/12/01 01:36:17;;;;;;;12.45;6.72;;;;;;;10.40;75.25;100915.63;4994323;28;20050;-69
2022/12/01 01:38:45;;;;;;;9.95;6.35;;;;;;;10.42;75.15;100907.53;4994356;28;20418;-69
2022/12/01 01:41:14;;;;;;;10.35;6.53;;;;;;;10.38;75.10;100912.19;4994365;28;20050;-68
2022/12/01 01:43:45;;;;;;;10.63;6.53;;;;;;;10.39;75.28;100902.38;4994557;28;20049;-68
2022/12/01 01:46:16;;;;;;;10.32;6.25;;;;;;;10.37;75.43;100909.59;4994064;28;20454;-69
2022/12/01 01:48:49;;;;;;;10.68;6.60;;;;;;;10.39;75.25;100907.72;4995046;28;20057;-69
2022/12/01 01:51:22;;;;;;;10.98;6.55;;;;;;;10.38;75.25;100912.19;4994724;28;20133;-69
2022/12/01 01:53:53;;;;;;;10.75;6.47;;;;;;;10.34;75.29;100909.75;4994342;28;20046;-69
2022/12/01 01:56:22;;;;;;;10.13;6.10;;;;;;;10.32;75.21;100905.31;4994574;28;20046;-69
2022/12/01 01:58:52;;;;;;;10.93;6.30;;;;;;;10.34;74.98;100909.75;4992894;28;20050;-68
2022/12/01 02:01:22;;;;;;;10.27;6.07;;;;;;;10.33;75.01;100911.56;4994161;28;20483;-69
2022/12/01 02:03:53;;;;;;;9.15;6.30;;;;;;;10.30;75.30;100904.53;4994155;28;20395;-69
2022/12/01 02:06:23;;;;;;;9.85;6.05;;;;;;;10.30;75.01;100901.00;4994222;28;20089;-69
2022/12/01 02:08:52;;;;;;;9.35;5.75;;;;;;;10.30;75.18;100901.00;4996279;28;20042;-70
2022/12/01 02:11:52;;;;;;;10.25;5.93;;;;;;;10.29;75.23;100892.16;4997978;28;20050;-68
2022/12/01 02:14:41;;;;;;;9.23;5.70;;;;;;;10.28;74.91;100895.75;4997671;28;20115;-68
2022/12/01 02:17:22;;;;;;;10.60;5.60;;;;;;;10.28;74.98;100895.75;5013146;28;20058;-67
2022/12/01 02:20:20;;;;;;;9.20;6.22;;;;;;;10.28;75.03;100895.75;4997851;28;20108;-69
2022/12/01 02:23:01;;;;;;;9.40;6.00;;;;;;;10.27;74.85;100899.38;4997795;28;20046;-68
2022/12/01 02:25:41;;;;;;;9.57;5.97;;;;;;;10.27;74.79;100896.72;4997633;28;20058;-68
2022/12/01 02:28:44;;;;;;;10.48;5.88;;;;;;;10.26;75.01;100902.13;4997395;28;20054;-67
2022/12/01 02:31:17;;;;;;;9.35;5.72;;;;;;;10.24;74.91;100904.00;4997611;28;20141;-68
2022/12/01 02:33:51;;;;;;;;;;;;;;;10.29;74.81;100902.81;4997697;28;20049;-68
2022/12/01 02:36:28;;;;;;;9.15;5.55;;;;;;;10.34;73.96;100899.94;4997343;28;19925;-68
2022/12/01 02:39:01;;;;;;;9.65;6.13;;;;;;;10.32;74.23;100900.00;4997825;28;20050;-68
2022/12/01 02:41:37;;;;;;;10.05;5.72;;;;;;;10.30;74.54;100895.69;4997216;28;20049;-68
2022/12/01 02:44:10;;;;;;;9.88;5.82;;;;;;;10.29;74.46;100902.81;4997488;28;20113;-68
2022/12/01 02:46:44;;;;;;;9.98;5.50;;;;;;;10.27;74.63;100896.72;4997376;28;20089;-68
2022/12/01 02:49:16;;;;;;;9.48;5.80;;;;;;;10.27;74.45;100902.03;4997155;28;20046;-68
2022/12/01 02:51:45;;;;;;;9.70;6.07;;;;;;;10.28;74.29;100890.44;4997809;28;20046;-68
2022/12/01 02:54:15;;;;;;;8.35;5.60;;;;;;;10.23;74.25;100897.81;4997125;28;20057;-68
2022/12/01 02:56:44;;;;;;;9.30;5.80;;;;;;;10.25;74.23;100885.25;4997175;28;20372;-70
2022/12/01 02:59:15;;;;;;;11.38;6.30;;;;;;;10.25;73.99;100885.25;4997123;28;20053;-69
2022/12/01 03:01:55;;;;;;;9.43;5.72;;;;;;;10.24;74.24;100883.53;4997595;28;20046;-68
2022/12/01 03:04:51;;;;;;;9.00;5.63;;;;;;;10.22;74.30;100889.84;4997374;28;20054;-68
2022/12/01 03:07:40;;;;;;;9.75;5.88;;;;;;;10.23;74.18;100887.16;4996627;28;20069;-68
2022/12/01 03:10:16;;;;;;;10.30;6.07;;;;;;;10.24;74.08;100885.34;4997040;28;20062;-69
2022/12/01 03:12:57;;;;;;;9.27;6.18;;;;;;;10.21;74.04;100888.97;4996903;28;20070;-69
2022/12/01 03:15:34;;;;;;;9.30;5.82;;;;;;;10.21;74.23;100894.28;4996737;28;20057;-69
2022/12/01 03:18:11;;;;;;;9.88;5.82;;;;;;;10.20;74.09;100887.25;4997453;28;20085;-68
2022/12/01 03:20:46;;;;;;;11.00;6.25;;;;;;;10.20;74.20;100897.03;4996585;28;20054;-68
2022/12/01 03:23:18;;;;;;;9.10;5.35;;;;;;;10.19;74.13;100893.50;4996730;28;20121;-69
2022/12/01 03:25:49;;;;;;;9.05;5.93;;;;;;;10.18;74.12;100894.44;4985915;28;20046;-69
2022/12/01 03:28:20;;;;;;;8.95;5.85;;;;;;;10.16;74.03;100893.66;4979133;28;20038;-70
2022/12/01 03:30:55;;;;;;;10.95;6.32;;;;;;;10.16;74.07;100892.81;4976012;28;20404;-68
2022/12/01 03:33:29;;;;;;;10.40;5.93;;;;;;;10.15;74.20;100883.94;4977186;28;20046;-68
2022/12/01 03:36:03;;;;;;;10.10;5.95;;;;;;;10.16;73.82;100880.34;4977087;28;20070;-69
2022/12/01 03:38:35;;;;;;;8.95;5.53;;;;;;;10.10;74.16;100875.28;4976961;28;20062;-69
2022/12/01 03:41:07;;;;;;;9.43;6.15;;;;;;;10.15;74.08;100878.63;4976923;28;20428;-68
2022/12/01 03:43:40;;;;;;;9.45;6.10;;;;;;;10.15;73.94;100875.09;4976586;28;20047;-68
2022/12/01 03:46:13;;;;;;;9.93;5.90;;;;;;;10.14;74.00;100874.22;4976792;28;20047;-69
2022/12/01 03:48:43;;;;;;;9.77;6.13;;;;;;;10.15;73.83;100875.09;4976548;28;20047;-69
2022/12/01 03:51:16;;;;;;;9.82;5.75;;;;;;;10.13;73.75;100871.59;4976829;28;20053;-69
2022/12/01 03:53:52;;;;;;;10.52;5.95;;;;;;;10.15;73.71;100878.63;4975796;28;20121;-69
2022/12/01 03:56:26;;;;;;;10.02;5.88;;;;;;;10.16;73.49;100880.34;4976441;28;20106;-69
2022/12/01 03:58:57;;;;;;;10.13;6.28;;;;;;;10.11;73.55;100879.69;4976908;28;20533;-69
2022/12/01 04:01:31;;;;;;;9.60;5.95;;;;;;;10.11;73.65;100881.50;4976623;28;20073;-69
2022/12/01 04:04:06;;;;;;;9.02;5.80;;;;;;;10.11;73.92;100878.81;4976743;28;20043;-69
2022/12/01 04:06:34;;;;;;;10.40;6.28;;;;;;;10.10;73.82;100885.09;4976434;28;20072;-68
2022/12/01 04:09:03;;;;;;;10.77;6.45;;;;;;;10.09;73.71;100880.69;4976041;28;20523;-68
2022/12/01 04:14:17;;;;;;;10.48;6.20;;;;;;;10.07;73.81;100872.78;4975974;28;20074;-68
2022/12/01 04:16:45;;;;;;;11.88;6.30;;;;;;;10.06;73.51;100876.38;4975044;28;20496;-69
2022/12/01 04:19:15;;;;;;;10.55;5.97;;;;;;;10.05;73.66;100877.34;4975742;28;20074;-69
2022/12/01 04:21:43;;;;;;;9.93;6.00;;;;;;;10.05;73.43;100877.34;4976112;28;20054;-69
2022/12/01 04:24:12;;;;;;;11.15;5.78;;;;;;;10.03;73.65;100876.50;4974823;28;20051;-69
2022/12/01 04:26:40;;;;;;;10.27;6.00;;;;;;;10.02;73.62;100872.13;4975694;28;20047;-69
2022/12/01 04:29:12;;;;;;;9.70;5.70;;;;;;;10.02;73.62;100877.47;4975632;28;20106;-69
2022/12/01 04:31:40;;;;;;;9.60;6.07;;;;;;;10.01;73.45;100870.41;4974796;28;20062;-69
2022/12/01 04:34:10;;;;;;;9.65;5.57;;;;;;;10.00;73.53;100868.69;4975800;28;20055;-69
2022/12/01 04:36:39;;;;;;;10.00;6.10;;;;;;;9.97;73.47;100863.50;4975805;28;20055;-69
2022/12/01 04:39:07;;;;;;;10.32;5.65;;;;;;;9.99;73.26;100869.63;4975969;28;20063;-69
2022/12/01 04:41:35;;;;;;;9.63;5.68;;;;;;;9.99;73.46;100869.63;4974550;28;20055;-68
2022/12/01 04:44:04;;;;;;;10.13;5.70;;;;;;;9.97;73.42;100868.84;4975734;28;20050;-69
2022/12/01 04:46:32;;;;;;;9.35;5.88;;;;;;;9.95;73.47;100876.03;4976111;28;20054;-69
2022/12/01 04:49:00;;;;;;;10.10;5.95;;;;;;;9.95;73.39;100892.03;4975635;28;20122;-69
2022/12/01 04:51:28;;;;;;;11.55;6.35;;;;;;;9.93;73.53;100901.88;4975237;28;20051;-69
2022/12/01 04:53:58;;;;;;;10.10;5.97;;;;;;;9.90;73.78;100902.91;4975805;28;20047;-70
2022/12/01 04:56:26;;;;;;;11.25;6.18;;;;;;;9.89;73.77;100913.63;4975649;28;20090;-69
2022/12/01 04:58:54;;;;;;;9.90;6.10;;;;;;;9.89;73.56;100914.50;4976105;28;20049;-70
2022/12/01 05:01:22;;;;;;;10.13;5.88;;;;;;;9.90;73.54;100910.88;4975360;28;20127;-69
2022/12/01 05:03:51;;;;;;;9.45;6.28;;;;;;;9.89;73.44;100905.63;4975418;28;20456;-69
2022/12/01 05:06:21;;;;;;;10.27;6.35;;;;;;;9.91;73.23;100893.97;4975261;28;20043;-69
2022/12/01 05:08:50;;;;;;;10.90;6.18;;;;;;;9.87;73.19;100889.72;4975572;28;20054;-69
2022/12/01 05:11:20;;;;;;;9.23;5.85;;;;;;;9.87;73.35;100894.19;4975233;28;20416;-68
2022/12/01 05:13:49;;;;;;;10.75;6.47;;;;;;;9.81;73.75;100892.66;4975251;28;20047;-68
2022/12/01 05:16:19;;;;;;;9.15;5.85;;;;;;;9.81;73.50;100900.66;4974848;28;20042;-69
2022/12/01 05:18:49;;;;;;;10.90;6.03;;;;;;;9.81;73.43;100898.00;4975238;28;20042;-69
2022/12/01 05:21:17;;;;;;;10.00;5.63;;;;;;;9.80;73.57;100896.28;4975190;28;20125;-70
2022/12/01 05:23:45;;;;;;;9.95;5.75;;;;;;;9.81;73.57;100899.78;4975074;28;20050;-68
2022/12/01 05:26:13;;;;;;;10.45;5.75;;;;;;;9.77;73.74;100898.22;4975259;28;20129;-69
2022/12/01 05:28:42;;;;;;;10.25;6.15;;;;;;;9.80;73.70;100903.41;4975016;28;20081;-69
2022/12/01 05:31:11;;;;;;;10.52;5.70;;;;;;;9.80;73.46;100892.75;4974936;28;20062;-68
2022/12/01 05:33:39;;;;;;;10.07;5.50;;;;;;;9.79;73.56;100899.88;4974916;28;20051;-69
2022/12/01 05:36:08;;;;;;;9.38;5.72;;;;;;;9.79;73.47;100904.34;4974948;28;20074;-69
2022/12/01 05:38:36;;;;;;;10.70;6.22;;;;;;;9.78;73.48;100899.94;4974892;28;20058;-69
2022/12/01 05:41:04;;;;;;;11.25;6.40;;;;;;;9.77;73.66;100906.22;4974843;28;20055;-69
2022/12/01 05:43:32;;;;;;;12.32;6.40;;;;;;;9.80;73.30;100903.41;4974970;28;20138;-69
2022/12/01 05:46:02;;;;;;;9.80;6.00;;;;;;;9.78;73.31;100899.94;4974430;28;20058;-69
2022/12/01 05:48:30;;;;;;;10.32;5.90;;;;;;;9.77;73.48;100899.09;4975365;28;20068;-69
2022/12/01 05:50:59;;;;;;;10.20;6.10;;;;;;;9.77;73.50;100898.22;4974874;28;20049;-69
2022/12/01 05:53:27;;;;;;;10.25;6.22;;;;;;;9.77;73.51;100898.22;4974746;28;20047;-69
2022/12/01 05:55:55;;;;;;;9.10;5.65;;;;;;;9.77;73.21;100906.22;4974929;28;20043;-69
2022/12/01 05:58:23;;;;;;;10.23;6.28;;;;;;;9.75;73.38;100899.16;4973972;28;20055;-70
2022/12/01 06:00:51;;;;;;;9.55;6.13;;;;;;;9.77;73.25;100904.41;4974670;28;20078;-69
2022/12/01 06:03:21;;;;;;;11.68;6.50;;;;;;;9.75;73.27;100906.28;4973438;28;20134;-69
2022/12/01 06:05:49;;;;;;;9.65;5.88;;;;;;;9.73;73.46;100909.00;4974552;28;20054;-68
2022/12/01 06:08:18;;;;;;;9.38;5.65;;;;;;;9.72;73.28;100917.94;4974304;28;20058;-69
2022/12/01 06:10:47;;;;;;;10.23;5.90;;;;;;;9.74;72.98;100916.06;4974216;28;20488;-69
2022/12/01 06:13:15;;;;;;;10.50;6.25;;;;;;;9.71;73.15;100916.22;4973245;28;20447;-69
2022/12/01 06:15:44;;;;;;;9.70;6.28;;;;;;;9.71;72.89;100921.53;4973345;28;20050;-69
2022/12/01 06:18:12;;;;;;;9.90;6.30;;;;;;;9.72;73.00;100919.72;4974577;28;20050;-70
2022/12/01 06:20:41;;;;;;;11.15;6.50;;;;;;;9.71;73.18;100924.19;4973104;28;20106;-69
2022/12/01 06:23:09;;;;;;;13.30;6.85;;;;;;;9.71;72.99;100921.53;4974747;28;20121;-68
2022/12/01 06:25:37;;;;;;;10.00;6.15;;;;;;;9.72;73.06;100925.06;4974465;28;20082;-70
2022/12/01 06:28:05;;;;;;;11.45;6.93;;;;;;;9.71;72.99;100926.88;4974188;28;20130;-68
2022/12/01 06:30:33;;;;;;;10.40;6.15;;;;;;;9.69;73.06;100927.88;4974585;28;20492;-68
2022/12/01 06:33:02;;;;;;;10.35;6.28;;;;;;;9.69;72.98;100923.41;4974006;28;20054;-69
2022/12/01 06:35:30;;;;;;;10.95;6.43;;;;;;;9.68;73.07;100924.34;4973078;28;20050;-69
2022/12/01 06:38:00;;;;;;;10.55;6.35;;;;;;;9.68;72.90;100912.84;4973873;28;20395;-70
2022/12/01 06:40:28;;;;;;;11.77;6.40;;;;;;;9.69;72.98;100923.41;4974330;28;20093;-69
2022/12/01 06:42:59;;;;;;;11.45;7.10;;;;;;;9.68;72.81;100920.81;4972796;28;20043;-69
2022/12/01 06:45:27;;;;;;;13.35;7.60;;;;;;;9.66;72.86;100923.56;4973277;28;20175;-69
2022/12/01 06:47:56;;;;;;;11.38;7.15;;;;;;;9.66;72.88;100910.25;4984421;28;20049;-69
2022/12/01 06:50:24;;;;;;;11.30;6.85;;;;;;;9.66;72.81;100918.22;4993460;28;20050;-70
2022/12/01 06:52:58;;;;;;;10.73;6.70;;;;;;;9.66;73.12;100922.69;4993288;28;20204;-69
2022/12/01 06:55:27;;;;;;;11.88;7.28;;;;;;;9.66;72.81;100928.03;4994576;28;20468;-70
2022/12/01 06:57:59;;;;;;;12.00;7.25;;;;;;;9.64;72.86;100922.75;4996828;28;20057;-70
2022/12/01 07:00:29;;;;;;;11.43;7.00;;;;;;;9.65;72.96;100920.94;4996971;28;20534;-69
2022/12/01 07:02:57;;;;;;;12.18;7.10;;;;;;;9.64;72.77;100919.22;4996472;28;20042;-70
2022/12/01 07:05:26;;;;;;;11.48;7.00;;;;;;;9.63;72.97;100915.69;4996896;28;20105;-70
2022/12/01 07:07:54;;;;;;;11.82;7.07;;;;;;;9.66;72.76;100922.69;4996813;28;20042;-68
2022/12/01 07:10:28;;;;;;;11.65;7.22;;;;;;;9.64;72.69;100922.75;4995809;28;20050;-69
2022/12/01 07:12:56;;;;;;;12.30;7.38;;;;;;;9.65;72.62;100929.81;4995451;28;20490;-69
2022/12/01 07:15:25;;;;;;;13.75;7.78;;;;;;;9.63;72.77;100923.69;4996830;28;20069;-69
2022/12/01 07:17:53;;;;;;;12.20;7.70;;;;;;;9.63;72.84;100926.34;4996401;28;20586;-75
2022/12/01 07:20:21;;;;;;;11.88;7.57;;;;;;;9.64;72.54;100930.72;4996684;28;20046;-72
2022/12/01 07:22:49;;;;;;;13.02;7.97;;;;;;;9.63;72.67;100931.66;4995554;28;20054;-72
2022/12/01 07:25:17;;;;;;;12.70;7.82;;;;;;;9.65;72.55;100937.81;4996557;28;20046;-71
2022/12/01 07:27:47;;;;;;;13.13;7.63;;;;;;;9.65;72.48;100935.16;4996392;28;20153;-73
2022/12/01 07:30:16;;;;;;;13.02;7.90;;;;;;;9.65;72.48;100931.59;4995993;28;20053;-72
2022/12/01 07:32:45;;;;;;;11.55;7.90;;;;;;;9.64;72.64;100930.72;4996724;28;20057;-72
2022/12/01 07:35:13;;;;;;;13.77;8.07;;;;;;;9.62;72.72;100931.75;4995265;28;20100;-71
2022/12/01 07:37:41;;;;;;;12.55;8.63;;;;;;;9.61;72.57;100936.22;4996044;28;20129;-72
2022/12/01 07:40:11;;;;;;;13.20;8.02;;;;;;;9.62;72.67;100934.41;4996278;28;20517;-72
2022/12/01 07:42:41;;;;;;;13.68;8.07;;;;;;;9.62;72.69;100942.41;4996166;28;20459;-71
2022/12/01 07:45:11;;;;;;;13.35;8.02;;;;;;;9.60;72.75;100933.63;4994931;28;20054;-72
2022/12/01 07:47:39;;;;;;;13.23;8.18;;;;;;;9.59;72.79;100930.09;4995692;28;20058;-73
2022/12/01 07:50:08;;;;;;;12.10;7.97;;;;;;;9.60;72.78;100926.50;4996157;28;20444;-72
2022/12/01 07:52:36;;;;;;;12.15;7.75;;;;;;;9.62;72.78;100931.75;4994411;28;20058;-72
2022/12/01 07:55:05;;;;;;;12.15;7.93;;;;;;;9.62;72.52;100934.41;4995829;28;20109;-72
2022/12/01 07:57:33;;;;;;;12.68;8.07;;;;;;;9.62;72.52;100937.94;4995900;28;20380;-72
2022/12/01 08:00:01;;;;;;;13.88;7.78;;;;;;;9.62;72.57;100942.41;4995416;28;20565;-72
2022/12/01 08:02:35;;;;;;;12.57;7.75;;;;;;;9.61;72.83;100935.34;4994656;28;20050;-73
2022/12/01 08:05:03;;;;;;;12.98;7.32;;;;;;;9.61;72.60;100946.88;4996100;28;20122;-72
2022/12/01 08:07:31;;;;;;;13.30;8.00;;;;;;;9.63;72.69;100950.31;4995588;28;20400;-71
2022/12/01 08:10:00;;;;;;;14.63;8.52;;;;;;;9.62;72.57;100953.06;4995523;28;20125;-72
2022/12/01 08:12:28;;;;;;;13.75;7.80;;;;;;;9.61;72.88;100946.00;4996105;28;20042;-71
2022/12/01 08:14:56;;;;;;;12.40;8.00;;;;;;;9.63;72.51;100947.66;4996084;28;20057;-71
2022/12/01 08:17:24;;;;;;;13.38;7.95;;;;;;;9.61;72.64;100936.22;4995784;28;20046;-72
2022/12/01 08:19:54;;;;;;;12.60;7.72;;;;;;;9.64;72.73;100946.72;4995423;28;20042;-72
2022/12/01 08:22:22;;;;;;;12.82;7.53;;;;;;;9.65;72.57;100936.94;4995468;28;20116;-72
2022/12/01 08:24:50;;;;;;;13.63;8.27;;;;;;;9.65;72.65;100937.81;4995446;28;20050;-72
2022/12/01 08:27:18;;;;;;;11.98;7.85;;;;;;;9.66;72.57;100936.03;4995016;28;20046;-72
2022/12/01 08:29:46;;;;;;;14.70;8.00;;;;;;;9.67;72.59;100932.41;4994741;28;20073;-72
2022/12/01 08:32:16;;;;;;;13.02;8.15;;;;;;;9.67;72.53;100935.94;4993719;28;20189;-72
2022/12/01 08:34:45;;;;;;;13.13;7.72;;;;;;;9.68;72.51;100943.00;4994735;28;20078;-72
2022/12/01 08:37:21;;;;;;;13.00;7.35;;;;;;;9.67;72.63;100940.41;4994059;28;20078;-71
2022/12/01 08:39:49;;;;;;;14.10;8.45;;;;;;;9.69;72.61;100946.53;4995167;28;20054;-72
2022/12/01 08:42:18;;;;;;;12.20;7.82;;;;;;;9.71;72.44;100949.97;4994980;28;20105;-72
2022/12/01 08:44:46;;;;;;;13.07;8.20;;;;;;;9.72;72.46;100947.25;4994989;28;20553;-71
2022/12/01 08:47:14;;;;;;;13.93;7.57;;;;;;;9.72;72.42;100952.56;4994584;28;20554;-71
2022/12/01 08:49:46;;;;;;;13.32;7.88;;;;;;;9.74;72.42;100948.03;4995044;28;20129;-70
2022/12/01 08:52:14;;;;;;;12.90;7.30;;;;;;;9.74;72.63;100950.69;4995123;28;20050;-70
2022/12/01 08:54:46;;;;;;;13.82;7.70;;;;;;;9.77;72.48;100940.84;4993941;28;20050;-71
2022/12/01 08:57:15;;;;;;;12.45;7.88;;;;;;;9.78;72.50;100945.25;4993493;28;20058;-70
2022/12/01 08:59:43;;;;;;;13.63;7.85;;;;;;;9.78;72.57;100939.91;4994462;28;20514;-71
2022/12/01 09:02:15;;;;;;;12.85;7.50;;;;;;;9.80;72.61;100946.03;4994720;28;20046;-71
2022/12/01 09:04:44;;;;;;;13.50;7.97;;;;;;;9.78;72.69;100942.59;4994067;28;20085;-72
2022/12/01 09:07:13;;;;;;;14.10;8.10;;;;;;;9.81;72.79;100942.44;4994693;28;20508;-71
2022/12/01 09:09:44;;;;;;;11.48;7.45;;;;;;;9.82;72.53;100941.50;4994541;28;20119;-71
2022/12/01 09:12:14;;;;;;;16.60;8.23;;;;;;;9.80;72.57;100940.69;4994956;28;20050;-71
2022/12/01 09:14:46;;;;;;;11.60;6.90;;;;;;;9.80;72.71;100938.03;4994621;28;20466;-71
2022/12/01 09:17:16;;;;;;;12.90;7.70;;;;;;;9.85;72.67;100933.38;4993460;28;20495;-70
2022/12/01 09:19:44;;;;;;;13.43;7.82;;;;;;;9.78;72.94;100922.13;4994161;28;20399;-70
2022/12/01 09:22:13;;;;;;;14.80;8.18;;;;;;;9.84;73.11;100931.63;4993175;28;20058;-70
2022/12/01 09:24:41;;;;;;;13.50;7.90;;;;;;;9.86;73.17;100932.44;4994529;28;20121;-71
2022/12/01 09:27:10;;;;;;;13.88;7.68;;;;;;;9.87;73.34;100931.50;4994030;28;20506;-71
2022/12/01 09:29:39;;;;;;;12.88;7.53;;;;;;;9.91;73.35;100930.41;4994573;28;20061;-71
2022/12/01 09:32:08;;;;;;;14.18;7.53;;;;;;;9.91;73.40;100923.28;4994376;28;20129;-71
2022/12/01 09:34:36;;;;;;;13.57;7.70;;;;;;;9.98;73.45;100929.19;5009085;28;20558;-71
2022/12/01 09:37:05;;;;;;;12.95;7.72;;;;;;;10.01;73.51;100923.72;4994756;28;20058;-71
2022/12/01 09:39:33;;;;;;;14.88;8.13;;;;;;;10.08;73.94;100924.28;4994289;28;20045;-71
2022/12/01 09:42:05;;;;;;;14.65;7.82;;;;;;;10.12;74.23;100920.53;4992931;28;20050;-71
2022/12/01 09:44:42;;;;;;;13.82;8.32;;;;;;;10.17;74.26;100921.19;4994624;28;20058;-71
2022/12/01 09:47:17;;;;;;;13.52;8.18;;;;;;;10.21;74.59;100922.75;4994517;28;20043;-70
2022/12/01 09:49:53;;;;;;;14.40;8.25;;;;;;;10.26;74.22;100913.66;4994380;28;20238;-71
2022/12/01 09:52:23;;;;;;;13.85;8.13;;;;;;;10.36;74.14;100923.88;4992847;28;20046;-71
2022/12/01 09:54:54;;;;;;;12.30;7.60;;;;;;;10.44;73.70;100913.69;4994214;28;20050;-70
2022/12/01 09:57:30;;;;;;;14.00;7.82;;;;;;;10.46;73.01;100909.16;4994200;28;20066;-70
2022/12/01 10:00:04;;;;;;;12.55;7.75;;;;;;;10.48;72.65;100907.25;4994238;28;20154;-70
2022/12/01 10:02:39;;;;;;;12.75;7.70;;;;;;;10.50;72.35;100900.03;4994160;28;20058;-71
2022/12/01 10:05:14;;;;;;;11.00;7.45;;;;;;;10.52;72.42;100907.03;4992963;28;20088;-71
2022/12/01 10:07:47;;;;;;;14.40;8.52;;;;;;;10.55;72.36;100903.34;4994104;28;20046;-71
2022/12/01 10:10:20;;;;;;;12.47;7.80;;;;;;;10.58;72.21;100900.53;4994006;28;20038;-71
2022/12/01 10:12:48;;;;;;;13.60;7.53;;;;;;;10.61;72.39;100897.69;4994135;28;20267;-71
2022/12/01 10:15:35;;;;;;;13.35;8.15;;;;;;;10.63;72.55;100892.31;4994023;28;20057;-71
2022/12/01 10:18:16;;;;;;;13.13;7.70;;;;;;;10.63;72.32;100898.50;4994140;28;20089;-71
2022/12/01 10:20:52;;;;;;;12.82;7.40;;;;;;;10.67;72.22;100896.53;4993618;28;20092;-71
2022/12/01 10:23:44;;;;;;;12.52;7.75;;;;;;;10.69;72.43;100889.31;4994341;28;20121;-71
2022/12/01 10:26:15;;;;;;;13.10;7.57;;;;;;;10.73;72.24;100894.44;4993969;28;20046;-71
2022/12/01 10:29:05;;;;;;;12.95;7.70;;;;;;;10.78;72.55;100887.03;4993615;28;20511;-71
2022/12/01 10:31:48;;;;;;;13.52;7.88;;;;;;;10.85;72.49;100885.78;4995127;28;20058;-71
2022/12/01 10:34:18;;;;;;;11.45;7.10;;;;;;;10.90;72.25;100872.19;4996436;28;20050;-72
2022/12/01 10:36:47;;;;;;;13.93;7.82;;;;;;;10.94;72.13;100878.25;4997329;28;20109;-72
2022/12/01 10:39:19;;;;;;;12.38;7.43;;;;;;;10.92;72.31;100878.34;4997114;28;20105;-72
2022/12/01 10:41:48;;;;;;;13.00;7.53;;;;;;;10.96;72.16;100874.56;4997412;28;20065;-72
2022/12/01 10:44:18;;;;;;;13.38;7.60;;;;;;;11.00;72.33;100872.59;4995933;28;20500;-72
2022/12/01 10:46:54;;;;;;;12.18;7.25;;;;;;;11.06;72.50;100866.94;4997446;28;20391;-72
2022/12/01 10:49:35;;;;;;;11.38;7.20;;;;;;;11.09;72.54;100867.63;4996152;28;20133;-72
2022/12/01 10:52:03;;;;;;;13.07;7.22;;;;;;;11.12;72.37;100864.81;4996000;28;20061;-72
2022/12/01 10:54:35;;;;;;;14.40;8.02;;;;;;;11.16;72.52;100863.69;4997064;28;20054;-72
2022/12/01 10:57:04;;;;;;;12.13;7.82;;;;;;;11.20;72.29;100869.75;4996127;28;20046;-72
2022/12/01 10:59:37;;;;;;;11.73;7.78;;;;;;;11.25;72.17;100870.38;4997255;28;20137;-72
2022/12/01 11:02:17;;;;;;;12.70;8.17;;;;;;;11.24;72.05;100863.31;4997619;28;20058;-72
2022/12/01 11:04:51;;;;;;;13.90;7.18;;;;;;;11.28;71.95;100859.50;4995825;28;20420;-73
2022/12/01 11:07:22;;;;;;;11.93;6.93;;;;;;;11.35;71.92;100863.59;4996132;28;20050;-72
2022/12/01 11:10:08;;;;;;;13.38;7.38;;;;;;;11.42;72.14;100859.66;4996191;28;20149;-72
2022/12/01 11:12:36;;;;;;;10.35;6.72;;;;;;;11.44;72.51;100857.75;4997053;28;20042;-72
2022/12/01 11:15:05;;;;;;;10.93;6.43;;;;;;;11.46;72.88;100855.84;4995580;28;20050;-72
2022/12/01 11:17:39;;;;;;;12.18;6.85;;;;;;;11.49;73.23;100837.94;4996897;28;20395;-71
2022/12/01 11:20:32;;;;;;;11.82;7.50;;;;;;;11.54;73.50;100844.75;4996769;28;20050;-71
2022/12/01 11:23:31;;;;;;;12.82;7.57;;;;;;;11.59;73.48;100841.84;4996728;28;20042;-72
2022/12/01 11:26:03;;;;;;;12.05;6.47;;;;;;;11.66;73.44;100841.41;4955925;29;20054;-73
2022/12/01 11:28:34;;;;;;;10.27;7.00;;;;;;;11.69;73.67;100840.38;4988860;28;20065;-73
2022/12/01 11:31:05;;;;;;;13.15;6.50;;;;;;;11.72;73.82;100834.88;4996824;28;20125;-72
2022/12/01 11:33:45;;;;;;;13.98;7.22;;;;;;;11.74;73.65;100838.31;4996607;28;20046;-72
2022/12/01 11:36:23;;;;;;;11.63;6.47;;;;;;;11.60;74.04;100814.19;4996494;28;20117;-73
2022/12/01 11:38:56;;;;;;;12.95;6.90;;;;;;;11.70;74.15;100834.09;4995475;28;20126;-73
2022/12/01 11:41:29;;;;;;;11.75;7.07;;;;;;;11.70;74.28;100826.06;4996164;28;20057;-72
2022/12/01 11:43:59;;;;;;;12.32;6.85;;;;;;;11.71;74.24;100828.66;4996353;28;20518;-73
2022/12/01 11:46:34;;;;;;;11.47;6.70;;;;;;;11.72;74.43;100834.88;4994929;28;20046;-72